Time;durP1;ratioP1;P1;durP2;ratioP2;P2;SDS_P1;SDS_P2;PMS_P1;PMS_P2;Temp;Humidity;BMP_temperature;BMP_pressure;BME280_temperature;BME280_humidity;BME280_pressure;Samples;Min_cycle;Max_cycle;Signal;HPM_P1;HPM_P2
2023/08/19 00:01:59;;;;;;;6.60;6.00;;;;;;;28.71;56.32;101795.80;106998;1257;25430;-49
2023/08/19 00:04:26;;;;;;;6.80;6.10;;;;;;;28.65;56.31;101796.11;107114;1257;25383;-49
2023/08/19 00:06:53;;;;;;;7.20;5.60;;;;;;;28.64;55.94;101796.86;107125;1263;23432;-49
2023/08/19 00:09:21;;;;;;;6.40;5.80;;;;;;;28.63;55.80;101793.80;107009;1263;25376;-49
2023/08/19 00:11:48;;;;;;;6.40;5.80;;;;;;;28.61;55.79;101793.07;107066;1254;25331;-49
2023/08/19 00:14:15;;;;;;;7.30;6.30;;;;;;;28.59;55.39;101788.77;107050;1266;25376;-49
2023/08/19 00:16:43;;;;;;;6.50;5.90;;;;;;;28.57;55.24;101786.61;107235;1256;25370;-49
2023/08/19 00:19:11;;;;;;;7.20;6.10;;;;;;;28.54;55.27;101784.41;107060;1258;25367;-49
2023/08/19 00:21:38;;;;;;;8.70;5.70;;;;;;;28.53;55.28;101784.19;107053;1270;25349;-49
2023/08/19 00:24:06;;;;;;;9.30;6.30;;;;;;;28.52;55.27;101788.02;106783;1267;25446;-49
2023/08/19 00:26:33;;;;;;;6.40;5.90;;;;;;;28.50;55.26;101785.33;107170;1256;25376;-49
2023/08/19 00:29:00;;;;;;;8.00;6.20;;;;;;;28.49;55.24;101785.60;107044;1257;25331;-49
2023/08/19 00:31:27;;;;;;;6.40;5.80;;;;;;;28.48;55.15;101786.06;106798;1273;25439;-50
2023/08/19 00:33:54;;;;;;;7.20;6.50;;;;;;;28.47;55.25;101779.17;106584;1260;531563;-48
2023/08/19 00:36:21;;;;;;;7.60;6.30;;;;;;;28.46;55.28;101781.92;106676;1266;25452;-50
2023/08/19 00:38:56;;;;;;;6.90;6.20;;;;;;;28.45;55.25;101785.20;106729;1266;24336;-50
2023/08/19 00:41:23;;;;;;;7.10;5.70;;;;;;;28.45;55.17;101787.70;106940;1266;25441;-50
2023/08/19 00:43:50;;;;;;;8.70;6.80;;;;;;;28.45;55.18;101786.48;106902;1263;25481;-51
2023/08/19 00:46:17;;;;;;;10.70;6.40;;;;;;;28.45;54.99;101787.71;107107;1259;25284;-50
2023/08/19 00:48:44;;;;;;;9.90;5.90;;;;;;;28.44;55.12;101790.08;107025;1266;25621;-50
2023/08/19 00:51:11;;;;;;;7.40;5.90;;;;;;;28.44;55.24;101791.69;106797;1273;25446;-50
2023/08/19 00:53:38;;;;;;;7.40;6.20;;;;;;;28.44;55.36;101794.00;106876;1270;25411;-50
2023/08/19 00:56:05;;;;;;;7.80;7.00;;;;;;;28.43;55.40;101798.89;106611;1276;25449;-50
2023/08/19 00:58:32;;;;;;;7.70;6.90;;;;;;;28.43;55.57;101797.28;106966;1266;25350;-50
2023/08/19 01:00:59;;;;;;;7.40;6.30;;;;;;;28.44;55.58;101796.73;106923;1272;25433;-50
2023/08/19 01:03:26;;;;;;;8.40;5.80;;;;;;;28.43;55.62;101795.02;107013;1257;25455;-48
2023/08/19 01:06:14;;;;;;;10.50;6.60;;;;;;;28.42;55.61;101795.27;107013;1261;25370;-49
2023/08/19 01:08:57;;;;;;;6.90;6.20;;;;;;;28.42;55.48;101792.79;106986;1270;25481;-49
2023/08/19 01:11:54;;;;;;;7.90;7.10;;;;;;;28.40;55.41;101791.46;106941;1258;25312;-48
2023/08/19 01:14:43;;;;;;;7.30;6.70;;;;;;;28.38;55.54;101790.93;107097;1260;25392;-49
2023/08/19 01:17:12;;;;;;;7.00;6.40;;;;;;;28.37;55.53;101792.84;107017;1263;25312;-49
2023/08/19 01:19:39;;;;;;;7.70;6.80;;;;;;;28.36;55.39;101794.17;107015;1272;23246;-49
2023/08/19 01:22:07;;;;;;;7.00;6.40;;;;;;;28.35;55.28;101793.33;107045;1257;25318;-48
2023/08/19 01:24:35;;;;;;;9.80;6.80;;;;;;;28.33;55.38;101793.83;107017;1257;25375;-49
2023/08/19 01:27:05;;;;;;;8.30;7.00;;;;;;;28.31;55.32;101797.61;106975;1263;25442;-49
2023/08/19 01:29:32;;;;;;;8.70;7.00;;;;;;;28.23;55.46;101799.88;107001;1256;25279;-49
2023/08/19 01:31:59;;;;;;;8.80;7.10;;;;;;;28.26;55.40;101800.64;106835;1268;25319;-49
2023/08/19 01:34:27;;;;;;;8.00;6.90;;;;;;;28.27;55.39;101798.66;106864;1259;23332;-49
2023/08/19 01:36:59;;;;;;;7.80;6.80;;;;;;;28.26;55.44;101799.23;106758;1267;25331;-49
2023/08/19 01:39:26;;;;;;;11.20;6.80;;;;;;;28.26;55.48;101803.74;107106;1254;22538;-48
2023/08/19 01:41:52;;;;;;;7.50;6.80;;;;;;;28.25;55.26;101801.48;107026;1263;25414;-49
2023/08/19 01:44:19;;;;;;;7.10;6.40;;;;;;;28.23;55.21;101800.21;106980;1267;25387;-49
2023/08/19 01:46:46;;;;;;;7.30;6.60;;;;;;;28.22;55.17;101797.96;106809;1260;25340;-49
2023/08/19 01:49:13;;;;;;;9.60;7.00;;;;;;;28.20;55.20;101798.69;107154;1264;25340;-49
2023/08/19 01:51:40;;;;;;;7.70;7.00;;;;;;;28.18;55.20;101798.65;107102;1266;22662;-49
2023/08/19 01:54:07;;;;;;;8.50;7.10;;;;;;;28.16;55.36;101795.39;107062;1260;25477;-49
2023/08/19 01:56:34;;;;;;;10.20;7.10;;;;;;;28.14;55.86;101793.40;107054;1257;25359;-49
2023/08/19 01:59:01;;;;;;;10.50;6.90;;;;;;;28.12;55.99;101796.95;106847;1270;25340;-49
2023/08/19 02:01:28;;;;;;;10.30;7.00;;;;;;;28.08;55.95;101796.23;106692;1260;25319;-49
2023/08/19 02:03:55;;;;;;;10.60;7.10;;;;;;;28.04;55.92;101797.59;106629;1276;25315;-49
2023/08/19 02:06:22;;;;;;;7.60;6.90;;;;;;;28.00;55.90;101800.22;106661;1261;25405;-49
2023/08/19 02:08:50;;;;;;;7.50;6.80;;;;;;;27.98;55.57;101799.34;106595;1262;22533;-49
2023/08/19 02:11:17;;;;;;;7.70;7.00;;;;;;;27.94;55.41;101799.66;106787;1260;25336;-49
2023/08/19 02:13:44;;;;;;;9.10;7.10;;;;;;;27.89;55.34;101796.42;106749;1270;25347;-49
2023/08/19 02:16:11;;;;;;;7.40;6.70;;;;;;;27.85;55.31;101797.84;106821;1260;25564;-49
2023/08/19 02:18:38;;;;;;;7.90;7.10;;;;;;;27.81;54.96;101797.29;106790;1266;25322;-49
2023/08/19 02:21:05;;;;;;;8.00;7.00;;;;;;;27.76;54.78;101800.16;106735;1260;25571;-49
2023/08/19 02:23:32;;;;;;;8.50;7.30;;;;;;;27.73;54.78;101798.83;106697;1263;25315;-49
2023/08/19 02:25:59;;;;;;;9.20;6.70;;;;;;;27.70;54.57;101795.82;106665;1273;25312;-49
2023/08/19 02:28:26;;;;;;;8.20;6.90;;;;;;;27.66;54.22;101793.96;106755;1269;25418;-48
2023/08/19 02:30:53;;;;;;;8.30;7.20;;;;;;;27.65;54.30;101797.98;106704;1269;25369;-49
2023/08/19 02:33:21;;;;;;;8.60;7.30;;;;;;;27.62;54.46;101795.36;106638;1270;25474;-49
2023/08/19 02:35:51;;;;;;;9.30;6.80;;;;;;;27.61;54.51;101795.80;106850;1267;25346;-50
2023/08/19 02:38:18;;;;;;;9.40;7.30;;;;;;;27.59;54.53;101797.38;107051;1263;22522;-49
2023/08/19 02:40:52;;;;;;;10.00;7.70;;;;;;;27.56;54.24;101799.95;107117;1256;25398;-49
2023/08/19 02:43:19;;;;;;;10.40;7.80;;;;;;;27.52;53.98;101800.46;107128;1257;25249;-48
2023/08/19 02:45:46;;;;;;;8.70;7.30;;;;;;;27.48;53.73;101799.90;107193;1263;25325;-49
2023/08/19 02:48:14;;;;;;;8.10;7.30;;;;;;;27.45;53.95;101799.75;106924;1266;25402;-50
2023/08/19 02:50:41;;;;;;;7.70;6.80;;;;;;;27.42;53.78;101802.66;107151;1272;25321;-49
2023/08/19 02:53:08;;;;;;;9.30;7.20;;;;;;;27.38;53.77;101801.09;107109;1267;25481;-49
2023/08/19 02:55:40;;;;;;;7.80;7.10;;;;;;;27.35;53.51;101805.25;107177;1263;25315;-48
2023/08/19 02:58:07;;;;;;;9.70;7.30;;;;;;;27.32;53.64;101799.76;107192;1263;25421;-49
2023/08/19 03:00:38;;;;;;;9.70;7.60;;;;;;;27.29;53.42;101799.98;106889;1270;25331;-49
2023/08/19 03:03:05;;;;;;;7.50;6.70;;;;;;;27.27;53.44;101801.73;107099;1250;25346;-49
2023/08/19 03:05:39;;;;;;;7.70;6.90;;;;;;;27.26;53.47;101800.95;106807;1263;25436;-49
2023/08/19 03:08:07;;;;;;;9.30;7.50;;;;;;;27.24;53.25;101804.12;107114;1272;25462;-49
2023/08/19 03:10:39;;;;;;;8.10;7.30;;;;;;;27.22;53.33;101804.09;107240;1257;25359;-49
2023/08/19 03:13:06;;;;;;;10.00;8.20;;;;;;;27.21;53.76;101805.00;107087;1257;22523;-49
2023/08/19 03:15:35;;;;;;;9.90;8.10;;;;;;;27.23;53.90;101805.61;107164;1267;25469;-49
2023/08/19 03:18:02;;;;;;;12.30;7.40;;;;;;;27.26;53.52;101808.94;107112;1256;25552;-48
2023/08/19 03:20:30;;;;;;;9.40;7.10;;;;;;;27.21;53.38;101809.30;106982;1267;25318;-49
2023/08/19 03:22:57;;;;;;;7.80;7.00;;;;;;;27.18;53.44;101812.72;107106;1266;22658;-49
2023/08/19 03:25:24;;;;;;;8.30;7.50;;;;;;;27.18;53.31;101810.42;107135;1271;25395;-49
2023/08/19 03:27:51;;;;;;;10.10;6.70;;;;;;;27.18;53.34;101814.38;107124;1250;25347;-49
2023/08/19 03:30:19;;;;;;;8.00;7.20;;;;;;;27.17;53.44;101811.20;107127;1256;22578;-49
2023/08/19 03:32:47;;;;;;;8.00;6.90;;;;;;;27.17;53.31;101811.56;106856;1267;25340;-49
2023/08/19 03:35:15;;;;;;;8.90;7.30;;;;;;;27.17;53.29;101813.17;107128;1256;25421;-49
2023/08/19 03:37:42;;;;;;;11.20;7.20;;;;;;;27.17;53.05;101815.81;107021;1269;25312;-48
2023/08/19 03:40:09;;;;;;;7.90;7.20;;;;;;;27.17;52.86;101816.88;107082;1263;25478;-49
2023/08/19 03:42:37;;;;;;;8.10;7.30;;;;;;;27.17;53.14;101821.35;106809;1272;25337;-49
2023/08/19 03:45:05;;;;;;;8.30;7.50;;;;;;;27.17;53.40;101820.11;107089;1254;25308;-49
2023/08/19 03:47:32;;;;;;;11.30;7.90;;;;;;;27.19;53.18;101821.58;107148;1263;25349;-49
2023/08/19 03:50:00;;;;;;;9.10;7.90;;;;;;;27.21;53.18;101822.34;107127;1269;25347;-49
2023/08/19 03:52:27;;;;;;;8.30;7.40;;;;;;;27.24;53.12;101821.38;107159;1263;25340;-49
2023/08/19 03:54:54;;;;;;;7.50;6.60;;;;;;;27.26;53.05;101822.30;106953;1270;25328;-49
2023/08/19 03:57:21;;;;;;;9.90;7.10;;;;;;;27.27;53.14;101823.48;107156;1263;25349;-49
2023/08/19 03:59:50;;;;;;;6.90;6.20;;;;;;;27.28;53.14;101822.33;107062;1257;25379;-49
2023/08/19 04:02:17;;;;;;;8.30;6.90;;;;;;;27.29;52.97;101822.97;107190;1254;25312;-49
2023/08/19 04:05:05;;;;;;;7.30;6.60;;;;;;;27.35;52.67;101826.47;107022;1261;25350;-49
2023/08/19 04:07:35;;;;;;;6.60;5.90;;;;;;;27.34;52.43;101821.39;107046;1257;25274;-49
2023/08/19 04:10:03;;;;;;;9.40;6.80;;;;;;;27.29;52.82;101821.04;107104;1260;25812;-49
2023/08/19 04:12:30;;;;;;;7.70;6.80;;;;;;;27.30;53.03;101822.55;106850;1255;23343;-49
2023/08/19 04:14:57;;;;;;;8.30;6.80;;;;;;;27.31;53.11;101819.92;106651;1258;22526;-49
2023/08/19 04:17:25;;;;;;;9.70;6.40;;;;;;;27.33;53.09;101821.95;106865;1254;25362;-49
2023/08/19 04:19:52;;;;;;;8.00;7.10;;;;;;;27.35;52.94;101824.63;106916;1257;25319;-50
2023/08/19 04:22:19;;;;;;;7.10;6.20;;;;;;;27.37;52.81;101823.98;107113;1259;25478;-50
2023/08/19 04:24:50;;;;;;;9.20;6.50;;;;;;;27.38;52.68;101822.34;107048;1264;24332;-50
2023/08/19 04:27:18;;;;;;;6.80;6.10;;;;;;;27.37;52.78;101820.39;107040;1255;22547;-50
2023/08/19 04:29:45;;;;;;;7.00;6.30;;;;;;;27.38;52.84;101819.96;106891;1267;25389;-50
2023/08/19 04:32:13;;;;;;;6.50;5.90;;;;;;;27.41;53.03;101818.04;107084;1254;22581;-50
2023/08/19 04:34:40;;;;;;;7.10;6.40;;;;;;;27.43;53.20;101816.62;107136;1263;25312;-50
2023/08/19 04:37:09;;;;;;;6.50;5.90;;;;;;;27.46;53.09;101818.21;106946;1257;25783;-50
2023/08/19 04:39:37;;;;;;;6.90;6.30;;;;;;;27.48;53.11;101814.45;107100;1256;22531;-48
2023/08/19 04:42:12;;;;;;;7.00;6.10;;;;;;;27.50;53.09;101816.26;106723;1270;25375;-48
2023/08/19 04:44:39;;;;;;;6.00;5.50;;;;;;;27.52;53.59;101815.42;107079;1251;22527;-48
2023/08/19 04:47:06;;;;;;;9.30;7.00;;;;;;;27.54;53.72;101815.77;107086;1270;25408;-48
2023/08/19 04:49:34;;;;;;;6.40;5.80;;;;;;;27.55;53.50;101813.38;107150;1257;24211;-48
2023/08/19 04:52:03;;;;;;;8.00;6.70;;;;;;;27.55;53.51;101810.56;107132;1257;25439;-48
2023/08/19 04:54:30;;;;;;;6.60;6.00;;;;;;;27.54;53.44;101812.55;107108;1261;25392;-48
2023/08/19 04:56:58;;;;;;;6.60;6.00;;;;;;;27.54;53.57;101805.95;107107;1257;25334;-49
2023/08/19 04:59:26;;;;;;;6.60;5.90;;;;;;;27.54;53.74;101810.38;106868;1270;25424;-48
2023/08/19 05:01:53;;;;;;;7.00;6.40;;;;;;;27.55;53.62;101806.77;106903;1267;23215;-48
2023/08/19 05:04:20;;;;;;;8.30;6.00;;;;;;;27.58;53.60;101808.72;107031;1256;25395;-48
2023/08/19 05:06:48;;;;;;;6.60;5.90;;;;;;;27.59;53.46;101809.29;107000;1273;22685;-48
2023/08/19 05:09:15;;;;;;;6.60;6.00;;;;;;;27.62;53.32;101813.00;107098;1258;25399;-48
2023/08/19 05:11:42;;;;;;;6.80;6.10;;;;;;;27.65;53.16;101814.92;107167;1260;25340;-48
2023/08/19 05:14:10;;;;;;;7.10;5.90;;;;;;;27.68;53.23;101813.27;107204;1269;25341;-49
2023/08/19 05:16:37;;;;;;;6.80;6.20;;;;;;;27.71;53.28;101819.96;106837;1270;25312;-48
2023/08/19 05:19:14;;;;;;;6.30;5.80;;;;;;;27.76;53.05;101821.95;107195;1265;25468;-48
2023/08/19 05:21:41;;;;;;;7.30;6.40;;;;;;;27.80;53.19;101820.55;107130;1264;24423;-48
2023/08/19 05:24:10;;;;;;;6.70;6.00;;;;;;;27.83;53.34;101819.05;107124;1251;25373;-49
2023/08/19 05:26:38;;;;;;;6.90;5.40;;;;;;;27.87;53.14;101820.88;107007;1254;25226;-49
2023/08/19 05:29:05;;;;;;;6.50;5.70;;;;;;;27.91;52.04;101820.90;106875;1267;22524;-49
2023/08/19 05:31:32;;;;;;;6.70;6.00;;;;;;;27.96;51.86;101822.11;107073;1257;25421;-48
2023/08/19 05:33:59;;;;;;;7.10;6.30;;;;;;;28.02;51.65;101824.54;107174;1255;25327;-48
2023/08/19 05:36:27;;;;;;;7.50;6.80;;;;;;;28.08;51.28;101825.66;107132;1256;25453;-48
2023/08/19 05:38:54;;;;;;;6.80;6.10;;;;;;;28.14;50.86;101823.95;106859;1266;22646;-48
2023/08/19 05:41:21;;;;;;;8.20;6.70;;;;;;;28.19;50.88;101824.95;107105;1254;25366;-49
2023/08/19 05:43:48;;;;;;;7.20;6.50;;;;;;;28.26;50.53;101828.90;107034;1251;25362;-49
2023/08/19 05:46:15;;;;;;;7.50;6.80;;;;;;;28.44;50.26;101828.29;107098;1251;25290;-48
2023/08/19 05:48:42;;;;;;;7.70;5.90;;;;;;;28.62;49.97;101823.52;106888;1270;25430;-48
2023/08/19 05:51:09;;;;;;;6.90;6.20;;;;;;;28.62;50.16;101822.60;107108;1264;25327;-48
2023/08/19 05:53:36;;;;;;;8.10;6.70;;;;;;;28.64;50.13;101818.12;106853;1267;23194;-48
2023/08/19 05:56:03;;;;;;;6.60;5.80;;;;;;;28.72;49.99;101817.09;107012;1267;25430;-50
2023/08/19 05:58:30;;;;;;;7.20;6.30;;;;;;;28.82;49.69;101815.73;107114;1260;24370;-48
2023/08/19 06:01:02;;;;;;;8.30;6.30;;;;;;;28.95;49.49;101814.87;107142;1255;25338;-49
2023/08/19 06:03:30;;;;;;;10.00;6.10;;;;;;;29.10;48.82;101813.64;107158;1263;25346;-48
2023/08/19 06:05:57;;;;;;;8.60;6.00;;;;;;;29.27;48.02;101809.20;107145;1264;25445;-49
2023/08/19 06:08:24;;;;;;;7.60;6.80;;;;;;;29.45;47.51;101810.85;107099;1257;25411;-48
2023/08/19 06:11:07;;;;;;;8.00;5.90;;;;;;;29.63;46.84;101815.23;106896;1269;25478;-49
2023/08/19 06:13:35;;;;;;;6.80;6.10;;;;;;;29.77;46.27;101809.42;106915;1266;25344;-49
2023/08/19 06:16:03;;;;;;;8.50;6.80;;;;;;;29.86;46.34;101810.78;107104;1254;25365;-48
2023/08/19 06:18:31;;;;;;;6.80;6.20;;;;;;;29.94;46.48;101809.92;107107;1259;22576;-49
2023/08/19 06:20:58;;;;;;;6.20;5.60;;;;;;;30.01;46.42;101805.55;107112;1263;24201;-48
2023/08/19 06:23:25;;;;;;;6.60;6.00;;;;;;;30.07;46.10;101804.98;107211;1257;25319;-49
2023/08/19 06:25:53;;;;;;;7.60;6.30;;;;;;;30.15;45.92;101806.81;107104;1255;25395;-48
2023/08/19 06:28:23;;;;;;;9.80;6.60;;;;;;;30.22;45.78;101806.34;106894;1254;24373;-48
2023/08/19 06:30:50;;;;;;;6.80;6.30;;;;;;;30.29;45.78;101814.67;106904;1267;25414;-49
2023/08/19 06:33:18;;;;;;;7.10;6.40;;;;;;;30.37;45.95;101813.94;107102;1255;22556;-48
2023/08/19 06:35:49;;;;;;;7.40;6.00;;;;;;;30.47;45.40;101814.68;106836;1270;25347;-48
2023/08/19 06:38:20;;;;;;;9.90;6.40;;;;;;;30.57;44.99;101815.42;107058;1254;23904;-48
2023/08/19 06:41:09;;;;;;;9.60;7.00;;;;;;;30.68;44.58;101816.79;106917;1266;25291;-49
2023/08/19 06:43:39;;;;;;;6.50;5.90;;;;;;;30.74;44.36;101820.67;107088;1263;24338;-48
2023/08/19 06:46:07;;;;;;;9.30;6.40;;;;;;;30.80;44.29;101820.69;107114;1254;25567;-49
2023/08/19 06:48:35;;;;;;;6.30;5.70;;;;;;;30.84;44.13;101824.24;106813;1254;25327;-49
2023/08/19 06:51:03;;;;;;;8.50;7.50;;;;;;;30.89;43.45;101823.48;106812;1270;25331;-49
2023/08/19 06:53:30;;;;;;;10.90;9.80;;;;;;;30.92;43.29;101826.75;106926;1257;23217;-49
2023/08/19 06:56:31;;;;;;;16.10;14.10;;;;;;;30.96;43.32;101826.98;106757;1270;25343;-49
2023/08/19 06:59:03;;;;;;;12.20;8.30;;;;;;;31.00;43.39;101826.21;106733;1260;25436;-48
2023/08/19 07:01:30;;;;;;;8.40;6.80;;;;;;;31.05;42.91;101828.98;106865;1255;25545;-48
2023/08/19 07:03:58;;;;;;;6.90;6.30;;;;;;;31.09;42.71;101832.06;106762;1258;25334;-49
2023/08/19 07:06:25;;;;;;;7.90;6.40;;;;;;;31.10;42.29;101833.15;106893;1269;25486;-49
2023/08/19 07:08:52;;;;;;;7.30;6.70;;;;;;;31.11;42.06;101833.61;106817;1255;25516;-48
2023/08/19 07:11:19;;;;;;;9.70;7.10;;;;;;;31.13;42.06;101829.64;106828;1257;25465;-49
2023/08/19 07:13:46;;;;;;;8.70;7.20;;;;;;;31.18;41.84;101833.15;106746;1268;24212;-49
2023/08/19 07:16:14;;;;;;;11.30;7.50;;;;;;;31.24;41.91;101833.69;106526;1264;22530;-49
2023/08/19 07:18:41;;;;;;;7.90;7.20;;;;;;;31.32;41.33;101833.63;106669;1270;25325;-49
2023/08/19 07:21:09;;;;;;;7.60;6.90;;;;;;;31.45;41.47;101830.83;107125;1267;25309;-49
2023/08/19 07:23:37;;;;;;;8.30;6.80;;;;;;;31.68;41.58;101832.61;107137;1257;25340;-49
2023/08/19 07:26:04;;;;;;;7.40;6.60;;;;;;;31.98;40.95;101830.45;107076;1261;25350;-49
2023/08/19 07:28:31;;;;;;;8.10;6.40;;;;;;;32.30;40.41;101831.75;107028;1261;24229;-48
2023/08/19 07:30:59;;;;;;;7.70;6.90;;;;;;;32.53;39.51;101828.91;107081;1257;25477;-49
2023/08/19 07:33:26;;;;;;;7.00;6.30;;;;;;;32.66;39.01;101830.73;106639;1267;22520;-49
2023/08/19 07:35:53;;;;;;;9.60;6.60;;;;;;;32.72;38.63;101832.61;107057;1251;25510;-48
2023/08/19 07:38:20;;;;;;;7.10;6.40;;;;;;;32.76;38.85;101835.79;106993;1254;25322;-49
2023/08/19 07:40:47;;;;;;;7.10;6.40;;;;;;;32.79;38.20;101837.62;106839;1267;25330;-49
2023/08/19 07:43:14;;;;;;;6.70;6.20;;;;;;;32.75;38.20;101842.71;107240;1251;25340;-48
2023/08/19 07:45:42;;;;;;;6.60;5.70;;;;;;;32.69;38.30;101841.91;107065;1258;25340;-48
2023/08/19 07:48:08;;;;;;;9.60;6.40;;;;;;;32.63;38.89;101846.28;106813;1264;25331;-49
2023/08/19 07:50:36;;;;;;;6.70;5.90;;;;;;;32.61;39.14;101849.17;106793;1263;25350;-50
2023/08/19 07:53:03;;;;;;;9.80;6.00;;;;;;;32.60;39.12;101848.70;106933;1254;25469;-49
2023/08/19 07:55:30;;;;;;;6.20;5.70;;;;;;;32.59;39.27;101849.87;106912;1254;25349;-49
2023/08/19 07:57:57;;;;;;;6.40;5.80;;;;;;;32.61;39.43;101850.45;106851;1264;25481;-49
2023/08/19 08:00:24;;;;;;;7.00;5.70;;;;;;;32.61;39.75;101853.52;107059;1263;25365;-49
2023/08/19 08:02:51;;;;;;;6.30;5.40;;;;;;;32.61;39.27;101852.95;106764;1251;25350;-49
2023/08/19 08:05:18;;;;;;;7.70;5.70;;;;;;;32.60;39.30;101852.17;107107;1260;24276;-49
2023/08/19 08:07:45;;;;;;;6.20;5.60;;;;;;;32.60;39.15;101850.02;107098;1254;25344;-50
2023/08/19 08:10:12;;;;;;;6.40;5.70;;;;;;;32.58;39.22;101847.83;106876;1269;25433;-49
2023/08/19 08:12:39;;;;;;;7.40;5.80;;;;;;;32.57;39.23;101851.35;107197;1257;25322;-50
2023/08/19 08:15:07;;;;;;;6.80;6.10;;;;;;;32.55;39.44;101853.21;107118;1254;25341;-50
2023/08/19 08:17:34;;;;;;;6.60;6.00;;;;;;;32.53;39.51;101856.02;107088;1260;22547;-49
2023/08/19 08:20:02;;;;;;;6.60;6.10;;;;;;;32.54;39.59;101852.56;106895;1258;23881;-50
2023/08/19 08:22:30;;;;;;;7.40;5.90;;;;;;;32.55;39.97;101853.66;107146;1263;25347;-49
2023/08/19 08:24:57;;;;;;;6.60;6.00;;;;;;;32.56;39.92;101852.86;107072;1267;22552;-49
2023/08/19 08:27:24;;;;;;;7.10;6.40;;;;;;;32.55;39.72;101851.55;107066;1254;22538;-49
2023/08/19 08:29:51;;;;;;;6.10;5.50;;;;;;;32.53;40.13;101848.90;107109;1254;25468;-49
2023/08/19 08:32:18;;;;;;;6.90;6.10;;;;;;;32.54;40.67;101849.90;107122;1260;25312;-49
2023/08/19 08:34:45;;;;;;;7.60;6.10;;;;;;;32.55;40.84;101849.55;106959;1258;25340;-49
2023/08/19 08:37:13;;;;;;;6.60;5.90;;;;;;;32.58;40.98;101844.99;107062;1263;25327;-49
2023/08/19 08:39:40;;;;;;;7.60;6.30;;;;;;;32.62;40.67;101844.95;107200;1267;25399;-49
2023/08/19 08:42:08;;;;;;;6.30;5.70;;;;;;;32.63;41.13;101839.10;107191;1251;25331;-49
2023/08/19 08:44:35;;;;;;;6.30;5.60;;;;;;;32.66;41.23;101844.54;107209;1251;25350;-49
2023/08/19 08:47:02;;;;;;;6.40;5.80;;;;;;;32.70;40.81;101842.35;107056;1257;25413;-49
2023/08/19 08:49:29;;;;;;;6.30;5.70;;;;;;;32.70;40.20;101844.83;107050;1266;25331;-48
2023/08/19 08:51:59;;;;;;;7.00;5.60;;;;;;;32.70;39.44;101844.29;107092;1251;25334;-49
2023/08/19 08:54:26;;;;;;;7.10;5.40;;;;;;;32.68;39.56;101849.57;107028;1263;24215;-48
2023/08/19 08:56:54;;;;;;;6.00;5.40;;;;;;;32.65;39.36;101846.63;107071;1253;25331;-49
2023/08/19 08:59:21;;;;;;;8.80;5.30;;;;;;;32.67;39.61;101846.45;107081;1257;26079;-49
2023/08/19 09:01:48;;;;;;;8.40;5.40;;;;;;;32.65;39.39;101846.44;107039;1263;25374;-51
2023/08/19 09:04:15;;;;;;;6.30;5.70;;;;;;;32.68;39.57;101841.85;107041;1257;25322;-50
2023/08/19 09:06:43;;;;;;;6.20;5.50;;;;;;;32.69;39.56;101845.27;107093;1254;25471;-48
2023/08/19 09:09:12;;;;;;;5.80;5.30;;;;;;;32.69;39.68;101845.13;106914;1266;25331;-50
2023/08/19 09:11:42;;;;;;;6.70;6.10;;;;;;;32.71;39.58;101842.05;107198;1254;25349;-49
2023/08/19 09:14:21;;;;;;;5.70;5.20;;;;;;;32.74;39.20;101844.12;106913;1266;22643;-48
2023/08/19 09:16:49;;;;;;;6.30;5.60;;;;;;;32.76;39.48;101844.95;107133;1253;22625;-48
2023/08/19 09:19:16;;;;;;;5.90;5.40;;;;;;;32.80;39.18;101845.06;107132;1253;25340;-48
2023/08/19 09:21:43;;;;;;;6.30;5.40;;;;;;;32.84;39.24;101841.30;107228;1260;25318;-49
2023/08/19 09:24:15;;;;;;;6.20;5.20;;;;;;;32.87;39.01;101841.92;106947;1267;25318;-50
2023/08/19 09:26:43;;;;;;;6.20;5.70;;;;;;;32.90;38.45;101844.11;107081;1256;25356;-49
2023/08/19 09:29:10;;;;;;;7.70;5.50;;;;;;;32.93;38.88;101841.65;106853;1264;25347;-49
2023/08/19 09:31:40;;;;;;;5.90;5.40;;;;;;;32.97;38.53;101841.42;107169;1255;25369;-49
2023/08/19 09:34:07;;;;;;;6.70;5.60;;;;;;;33.03;38.71;101835.70;107170;1251;25407;-49
2023/08/19 09:36:34;;;;;;;6.60;5.70;;;;;;;33.09;38.82;101838.65;107165;1263;25344;-49
2023/08/19 09:39:03;;;;;;;6.70;5.20;;;;;;;33.13;38.31;101838.98;106827;1266;25338;-48
2023/08/19 09:41:30;;;;;;;6.00;5.20;;;;;;;33.16;37.93;101839.03;106863;1263;25382;-49
2023/08/19 09:43:57;;;;;;;5.30;4.90;;;;;;;33.19;37.58;101837.97;107142;1254;23282;-49
2023/08/19 09:46:34;;;;;;;6.70;5.40;;;;;;;33.21;37.48;101837.95;106854;1274;25340;-49
2023/08/19 09:49:01;;;;;;;6.10;5.20;;;;;;;33.26;37.53;101838.92;107111;1250;22524;-49
2023/08/19 09:51:28;;;;;;;7.10;5.40;;;;;;;33.30;37.66;101837.93;106780;1259;25331;-49
2023/08/19 09:53:56;;;;;;;8.10;5.90;;;;;;;33.35;37.94;101838.69;107115;1257;25477;-49
2023/08/19 09:56:25;;;;;;;7.30;5.80;;;;;;;33.40;37.72;101835.12;106974;1267;25281;-49
2023/08/19 09:58:56;;;;;;;6.60;5.80;;;;;;;33.42;37.93;101835.41;107180;1260;22645;-49
2023/08/19 10:01:25;;;;;;;6.30;5.70;;;;;;;33.45;37.97;101832.92;107062;1253;25341;-49
2023/08/19 10:03:52;;;;;;;7.00;5.60;;;;;;;33.51;38.30;101829.55;107176;1262;25359;-49
2023/08/19 10:06:25;;;;;;;6.80;6.10;;;;;;;33.57;38.02;101829.27;107054;1263;25333;-49
2023/08/19 10:08:58;;;;;;;9.00;5.70;;;;;;;33.63;37.77;101830.27;107023;1263;25337;-48
2023/08/19 10:11:27;;;;;;;6.20;5.60;;;;;;;33.69;37.58;101832.08;107188;1254;25331;-49
2023/08/19 10:13:54;;;;;;;7.30;5.50;;;;;;;33.72;37.34;101835.71;106940;1265;22616;-49
2023/08/19 10:16:21;;;;;;;8.20;5.80;;;;;;;33.75;37.57;101832.78;107110;1253;25408;-49
2023/08/19 10:18:48;;;;;;;7.10;5.60;;;;;;;33.80;37.60;101831.80;107082;1257;25318;-49
2023/08/19 10:21:16;;;;;;;8.40;6.00;;;;;;;33.85;37.51;101829.41;107057;1262;25356;-49
2023/08/19 10:23:44;;;;;;;8.50;6.30;;;;;;;33.92;37.60;101829.80;107138;1256;25334;-48
2023/08/19 10:26:11;;;;;;;6.70;5.90;;;;;;;33.99;37.62;101829.25;107114;1260;25510;-48
2023/08/19 10:28:38;;;;;;;8.20;6.40;;;;;;;34.04;37.45;101822.46;106968;1254;25350;-48
2023/08/19 10:31:15;;;;;;;8.70;6.60;;;;;;;34.08;37.57;101822.87;106895;1257;25571;-48
2023/08/19 10:33:45;;;;;;;8.00;6.40;;;;;;;34.12;37.52;101821.75;107107;1257;25424;-49
2023/08/19 10:36:16;;;;;;;7.70;6.40;;;;;;;34.14;37.38;101820.07;107031;1258;25368;-48
2023/08/19 10:38:56;;;;;;;;;;;;;;;34.16;37.46;101822.76;107194;1251;25357;-48
2023/08/19 10:41:33;;;;;;;8.90;6.40;;;;;;;34.19;37.57;101821.59;107207;1254;25331;-48
2023/08/19 10:44:04;;;;;;;9.30;6.80;;;;;;;34.21;37.34;101818.70;107140;1260;22523;-48
2023/08/19 10:46:33;;;;;;;7.10;6.20;;;;;;;34.22;37.08;101814.58;107007;1269;25471;-48
2023/08/19 10:49:02;;;;;;;7.70;6.50;;;;;;;34.22;36.74;101815.12;106969;1257;22528;-49
2023/08/19 10:51:53;;;;;;;6.30;5.50;;;;;;;34.21;36.92;101817.52;107124;1250;22558;-48
2023/08/19 10:54:40;;;;;;;11.00;6.90;;;;;;;34.22;36.93;101818.66;107233;1263;25331;-49
2023/08/19 10:57:23;;;;;;;6.70;5.90;;;;;;;34.27;36.83;101816.56;107161;1260;22554;-49
2023/08/19 10:59:54;;;;;;;6.30;5.70;;;;;;;34.32;36.56;101814.19;107063;1257;25363;-49
2023/08/19 11:02:21;;;;;;;;;;;;;;;34.36;36.59;101809.77;107084;1253;25203;-48
2023/08/19 11:04:48;;;;;;;6.60;5.40;;;;;;;34.40;36.34;101807.42;107186;1254;25398;-49
2023/08/19 11:07:16;;;;;;;8.10;5.60;;;;;;;34.42;36.11;101804.69;107141;1254;25331;-48
2023/08/19 11:09:45;;;;;;;8.10;5.90;;;;;;;34.45;35.96;101809.05;107084;1251;25359;-49
2023/08/19 11:12:16;;;;;;;9.20;5.90;;;;;;;34.47;36.04;101806.31;107277;1266;22539;-48
2023/08/19 11:14:46;;;;;;;;;;;;;;;34.49;36.51;101804.14;107222;1260;22624;-49
2023/08/19 11:17:14;;;;;;;;;;;;;;;34.54;36.74;101803.06;107097;1253;25484;-49
2023/08/19 11:19:43;;;;;;;;;;;;;;;34.60;36.92;101802.59;107139;1263;25305;-48
2023/08/19 11:22:16;;;;;;;;;;;;;;;34.67;36.73;101802.41;106953;1257;25455;-49
2023/08/19 11:24:43;;;;;;;;;;;;;;;34.73;36.70;101803.52;106796;1270;25388;-49
2023/08/19 11:27:10;;;;;;;;;;;;;;;34.78;36.68;101801.30;106900;1256;24210;-49